Aviation Digital Data Service (ADDS)

Output produced by TAFs form (0905 UTC 24 November 2014)
found at http://www.aviationweather.gov/adds/tafs/
 
KIAD 240858Z 2409/2512 18015KT P6SM OVC003 WS020/19040KT 
     FM241000 18014KT P6SM OVC003 
     FM241300 19012KT P6SM OVC008 
     FM241400 19013KT P6SM OVC015 
     FM241600 20015G23KT P6SM BKN060 
     FM241800 20017G26KT P6SM SCT050 
     FM242000 20016G24KT P6SM SCT200 
     FM250100 21011KT P6SM SCT250 
     FM250500 25007KT P6SM SCT150